Time;durP1;ratioP1;P1;durP2;ratioP2;P2;SDS_P1;SDS_P2;PMS_P1;PMS_P2;Temp;Humidity;BMP_temperature;BMP_pressure;BME280_temperature;BME280_humidity;BME280_pressure;Samples;Min_cycle;Max_cycle;Signal;HPM_P1;HPM_P2
2022/11/26 00:01:17;;;;;;;;;;;;;;;7.01;100.00;98769.91;5069850;28;19965;-60
2022/11/26 00:03:43;;;;;;;;;;;;;;;7.02;100.00;98763.56;5069843;28;19980;-60
2022/11/26 00:06:20;;;;;;;;;;;;;;;7.06;100.00;98770.03;5069569;28;19925;-59
2022/11/26 00:08:47;;;;;;;;;;;;;;;7.00;100.00;98765.63;5069897;28;19968;-60
2022/11/26 00:11:15;;;;;;;;;;;;;;;6.93;100.00;98765.66;5069511;28;19963;-60
2022/11/26 00:13:41;;;;;;;;;;;;;;;6.84;100.00;98772.28;5069638;28;20083;-60
2022/11/26 00:16:09;;;;;;;;;;;;;;;6.82;100.00;98773.53;5069404;28;19952;-60
2022/11/26 00:18:35;;;;;;;;;;;;;;;6.87;100.00;98779.81;5069683;28;19928;-60
2022/11/26 00:21:01;;;;;;;;;;;;;;;6.94;100.00;98782.41;5069480;28;20016;-60
2022/11/26 00:23:28;;;;;;;;;;;;;;;7.04;100.00;98783.56;5052837;28;19967;-60
2022/11/26 00:25:56;;;;;;;;;;;;;;;6.94;100.00;98785.09;5069232;28;19989;-61
2022/11/26 00:28:27;;;;;;;;;;;;;;;6.98;100.00;98788.94;5068641;28;21323;-59
2022/11/26 00:30:54;;;;;;;;;;;;;;;6.83;100.00;98785.81;5069512;28;19924;-61
2022/11/26 00:33:21;;;;;;;;;;;;;;;6.77;100.00;98784.00;5069226;28;19924;-60
2022/11/26 00:35:48;;;;;;;;;;;;;;;7.02;100.00;98784.81;5069297;28;19972;-61
2022/11/26 00:38:17;;;;;;;;;;;;;;;6.99;100.00;98782.59;5069212;28;19932;-61
2022/11/26 00:40:43;;;;;;;;;;;;;;;7.04;100.00;98791.53;5069095;28;19992;-61
2022/11/26 00:43:10;;;;;;;;;;;;;;;7.03;100.00;98786.41;5068936;28;20003;-60
2022/11/26 00:45:38;;;;;;;;;;;;;;;6.96;100.00;98791.78;5068970;28;19988;-61
2022/11/26 00:48:04;;;;;;;;;;;;;;;7.05;100.00;98802.97;5069063;28;20441;-60
2022/11/26 00:50:33;;;;;;;;;;;;;;;7.09;100.00;98801.47;5051508;28;19992;-61
2022/11/26 00:53:00;;;;;;;;;;;;;;;7.04;100.00;98806.66;5060984;28;20011;-60
2022/11/26 00:55:28;;;;;;;;;;;;;;;7.10;100.00;98808.44;5068072;28;19972;-60
2022/11/26 00:57:54;;;;;;;;;;;;;;;7.13;100.00;98807.19;5069241;28;19987;-60
2022/11/26 01:00:22;;;;;;;;;;;;;;;7.11;100.00;98814.56;5069208;28;20048;-60
2022/11/26 01:02:49;;;;;;;;;;;;;;;6.90;100.00;98821.88;5065773;28;19997;-60
2022/11/26 01:05:17;;;;;;;;;;;;;;;6.94;100.00;98819.59;5069219;28;20315;-61
2022/11/26 01:07:44;;;;;;;;;;;;;;;7.00;100.00;98829.34;5069349;28;19984;-60
2022/11/26 01:10:15;;;;;;;;;;;;;;;6.98;100.00;98829.59;5069214;28;19999;-60
2022/11/26 01:12:42;;;;;;;;;;;;;;;6.83;100.00;98825.63;5069369;28;19935;-59
2022/11/26 01:15:08;;;;;;;;;;;;;;;6.97;100.00;98837.75;5069045;28;19935;-60
2022/11/26 01:17:34;;;;;;;;;;;;;;;7.12;100.00;98842.75;5069185;28;19927;-60
2022/11/26 01:20:02;;;;;;;;;;;;;;;7.17;100.00;98838.41;5068890;28;19935;-60
2022/11/26 01:22:29;;;;;;;;;;;;;;;7.17;100.00;98843.72;5057003;28;20006;-60
2022/11/26 01:24:55;;;;;;;;;;;;;;;7.18;100.00;98849.84;5064502;28;19934;-60
2022/11/26 01:27:21;;;;;;;;;;;;;;;7.10;100.00;98856.25;5068711;28;20008;-60
2022/11/26 01:29:48;;;;;;;;;;;;;;;7.02;100.00;98851.22;5068705;28;19925;-60
2022/11/26 01:32:14;;;;;;;;;;;;;;;6.95;100.00;98843.31;5068656;28;19960;-60
2022/11/26 01:34:40;;;;;;;;;;;;;;;6.85;100.00;98850.09;5068768;28;19988;-60
2022/11/26 01:37:12;;;;;;;;;;;;;;;6.93;100.00;98855.97;5068658;28;19980;-60
2022/11/26 01:39:39;;;;;;;;;;;;;;;7.01;100.00;98853.06;5068755;28;19925;-61
2022/11/26 01:42:07;;;;;;;;;;;;;;;6.99;100.00;98854.31;5068668;28;19949;-60
2022/11/26 01:44:35;;;;;;;;;;;;;;;7.13;100.00;98863.78;5068907;28;19935;-61
2022/11/26 01:47:01;;;;;;;;;;;;;;;7.14;100.00;98860.09;5068563;28;19980;-60
2022/11/26 01:49:29;;;;;;;;;;;;;;;7.18;100.00;98857.81;5060765;28;20021;-60
2022/11/26 01:52:00;;;;;;;;;;;;;;;7.17;100.00;98861.50;5068710;28;19984;-60
2022/11/26 01:54:28;;;;;;;;;;;;;;;7.11;100.00;98868.50;5060437;28;19936;-60
2022/11/26 01:56:55;;;;;;;;;;;;;;;7.07;100.00;98872.63;5068867;28;20027;-61
2022/11/26 01:59:26;;;;;;;;;;;;;;;7.03;100.00;98872.22;5068500;28;20013;-61
2022/11/26 02:01:53;;;;;;;;;;;;;;;7.00;100.00;98877.16;5068416;28;19935;-61
2022/11/26 02:04:21;;;;;;;;;;;;;;;7.05;100.00;98885.31;5069426;28;20028;-60
2022/11/26 02:06:48;;;;;;;;;;;;;;;7.03;100.00;98876.72;5072181;28;19988;-61
2022/11/26 02:09:15;;;;;;;;;;;;;;;6.96;100.00;98873.31;5072122;28;19996;-61
2022/11/26 02:11:42;;;;;;;;;;;;;;;7.02;100.00;98869.81;5072243;28;19925;-61
2022/11/26 02:14:12;;;;;;;;;;;;;;;7.02;100.00;98869.81;5071918;28;19984;-59
2022/11/26 02:16:53;;;;;;;;;;;;;;;7.03;100.00;98871.41;5072275;28;19988;-60
2022/11/26 02:19:37;;;;;;;;;;;;;;;6.88;100.00;98868.25;5072194;28;19965;-59
2022/11/26 02:22:07;;;;;;;;;;;;;;;6.86;100.00;98875.66;5061058;28;19997;-60
2022/11/26 02:24:43;;;;;;;;;;;;;;;6.86;100.00;98870.34;5064747;28;19992;-60
2022/11/26 02:27:33;;;;;;;;;;;;;;;6.83;100.00;98870.75;5071862;28;19995;-60
2022/11/26 02:30:04;;;;;;;;;;;;;;;6.87;100.00;98872.75;5071864;28;19998;-61
2022/11/26 02:32:33;;;;;;;;;;;;;;;6.84;100.00;98875.84;5063831;28;19924;-59
2022/11/26 02:35:02;;;;;;;;;;;;;;;6.86;100.00;98876.47;5071609;28;19984;-59
2022/11/26 02:37:31;;;;;;;;;;;;;;;7.04;100.00;98867.72;5063419;28;19990;-60
2022/11/26 02:39:57;;;;;;;;;;;;;;;7.07;100.00;98877.94;5071631;28;20023;-60
2022/11/26 02:42:25;;;;;;;;;;;;;;;7.03;100.00;98877.53;5071776;28;19925;-59
2022/11/26 02:44:52;;;;;;;;;;;;;;;6.88;100.00;98865.59;5071678;28;19925;-60
2022/11/26 02:47:20;;;;;;;;;;;;;;;6.89;100.00;98878.69;5071165;28;19935;-59
2022/11/26 02:49:47;;;;;;;;;;;;;;;7.01;100.00;98876.13;5071285;28;19971;-61
2022/11/26 02:52:14;;;;;;;;;;;;;;;7.05;100.00;98867.53;5069579;28;19989;-61
2022/11/26 02:54:42;;;;;;;;;;;;;;;7.07;100.00;98884.06;5065047;28;19996;-60
2022/11/26 02:57:11;;;;;;;;;;;;;;;7.02;100.00;98883.09;5071160;28;19992;-60
2022/11/26 02:59:38;;;;;;;;;;;;;;;7.00;100.00;98893.91;5071222;28;19936;-60
2022/11/26 03:02:09;;;;;;;;;;;;;;;6.96;100.00;98905.19;5071146;28;19980;-61
2022/11/26 03:04:39;;;;;;;;;;;;;;;6.86;100.00;98903.00;5071003;28;19920;-60
2022/11/26 03:07:06;;;;;;;;;;;;;;;6.89;100.00;98901.75;5070855;28;19920;-61
2022/11/26 03:09:39;;;;;;;;;;;;;;;6.97;100.00;98907.63;5071173;28;19962;-60
2022/11/26 03:12:05;;;;;;;;;;;;;;;7.05;100.00;98914.53;5070963;28;19948;-61
2022/11/26 03:14:32;;;;;;;;;;;;;;;6.97;100.00;98906.81;5071092;28;19980;-60
2022/11/26 03:16:58;;;;;;;;;;;;;;;6.90;100.00;98920.13;5069653;28;19999;-60
2022/11/26 03:19:24;;;;;;;;;;;;;;;6.94;100.00;98905.41;5070943;28;19987;-61
2022/11/26 03:21:52;;;;;;;;;;;;;;;6.97;100.00;98912.94;5070681;28;19975;-60
2022/11/26 03:24:18;;;;;;;;;;;;;;;6.95;100.00;98914.19;5070634;28;19925;-61
2022/11/26 03:26:45;;;;;;;;;;;;;;;7.00;100.00;98917.81;5070559;28;19931;-61
2022/11/26 03:29:11;;;;;;;;;;;;;;;7.06;100.00;98916.94;5070755;28;19924;-59
2022/11/26 03:31:37;;;;;;;;;;;;;;;7.10;100.00;98920.00;5070675;28;19927;-61
2022/11/26 03:34:03;;;;;;;;;;;;;;;7.13;100.00;98914.25;5052813;28;20027;-60
2022/11/26 03:36:30;;;;;;;;;;;;;;;7.05;100.00;98918.00;5070535;28;19925;-60
2022/11/26 03:38:57;;;;;;;;;;;;;;;7.07;100.00;98921.25;5070938;28;19931;-60
2022/11/26 03:41:24;;;;;;;;;;;;;;;7.13;100.00;98918.75;5070423;28;20373;-60
2022/11/26 03:43:50;;;;;;;;;;;;;;;7.08;100.00;98924.72;5070485;28;20020;-60
2022/11/26 03:46:16;;;;;;;;;;;;;;;7.01;100.00;98918.63;5070106;28;19996;-60
2022/11/26 03:48:43;;;;;;;;;;;;;;;7.06;100.00;98929.41;5070461;28;19924;-61
2022/11/26 03:51:09;;;;;;;;;;;;;;;7.01;100.00;98927.41;5070167;28;19927;-60
2022/11/26 03:53:35;;;;;;;;;;;;;;;6.92;100.00;98928.72;5070008;28;19984;-60
2022/11/26 03:56:03;;;;;;;;;;;;;;;6.92;100.00;98927.88;5070026;28;19975;-59
2022/11/26 03:58:29;;;;;;;;;;;;;;;6.93;100.00;98934.84;5070226;28;19987;-60
2022/11/26 04:00:56;;;;;;;;;;;;;;;6.97;100.00;98943.97;5070104;28;19960;-60
2022/11/26 04:03:22;;;;;;;;;;;;;;;6.98;100.00;98948.28;5069904;28;19927;-60
2022/11/26 04:05:48;;;;;;;;;;;;;;;6.96;100.00;98951.13;5070064;28;19988;-60
2022/11/26 04:08:15;;;;;;;;;;;;;;;6.96;100.00;98956.44;5069794;28;20432;-59
2022/11/26 04:10:41;;;;;;;;;;;;;;;7.05;100.00;98949.88;5069955;28;19925;-60
2022/11/26 04:13:09;;;;;;;;;;;;;;;6.96;100.00;98951.13;5069761;28;19925;-60
2022/11/26 04:15:35;;;;;;;;;;;;;;;7.00;100.00;98948.88;5069942;28;19921;-59
2022/11/26 04:18:01;;;;;;;;;;;;;;;7.06;100.00;98955.97;5069709;28;19960;-60
2022/11/26 04:20:28;;;;;;;;;;;;;;;7.06;100.00;98953.31;5061659;28;19983;-60
2022/11/26 04:22:54;;;;;;;;;;;;;;;7.07;100.00;98958.44;5069575;28;19928;-60
2022/11/26 04:25:20;;;;;;;;;;;;;;;7.11;100.00;98958.81;5069537;28;19988;-61
2022/11/26 04:27:47;;;;;;;;;;;;;;;7.13;100.00;98964.72;5069325;28;19967;-60
2022/11/26 04:30:15;;;;;;;;;;;;;;;7.16;100.00;98966.94;5069480;28;19929;-61
2022/11/26 04:32:42;;;;;;;;;;;;;;;7.21;100.00;98971.63;5069609;28;19921;-60
2022/11/26 04:35:08;;;;;;;;;;;;;;;7.23;100.00;98970.38;5069288;28;19992;-59
2022/11/26 04:37:35;;;;;;;;;;;;;;;7.20;100.00;98973.47;5069392;28;19931;-60
2022/11/26 04:40:02;;;;;;;;;;;;;;;7.22;100.00;98971.41;5069296;28;19925;-61
2022/11/26 04:42:28;;;;;;;;;;;;;;;7.23;100.00;98982.84;5043520;28;19992;-60
2022/11/26 04:44:54;;;;;;;;;;;;;;;7.19;100.00;98993.09;5069255;28;19932;-59
2022/11/26 04:47:22;;;;;;;;;;;;;;;7.18;100.00;98991.44;5069162;28;20008;-60
2022/11/26 04:49:48;;;;;;;;;;;;;;;7.16;100.00;98998.81;5069373;28;19963;-61
2022/11/26 04:52:15;;;;;;;;;;;;;;;7.15;100.00;99002.50;5068852;28;19921;-60
2022/11/26 04:54:41;;;;;;;;;;;;;;;7.10;100.00;98998.88;5069191;28;19936;-60
2022/11/26 04:57:07;;;;;;;;;;;;;;;7.16;100.00;99003.31;5068871;28;19964;-60
2022/11/26 04:59:34;;;;;;;;;;;;;;;7.16;100.00;99004.13;5069169;28;20110;-60
2022/11/26 05:02:00;;;;;;;;;;;;;;;7.14;100.00;99011.50;5069092;28;19921;-61
2022/11/26 05:04:28;;;;;;;;;;;;;;;7.14;100.00;99011.50;5069094;28;19997;-60
2022/11/26 05:06:55;;;;;;;;;;;;;;;7.19;100.00;99018.84;5068983;28;19964;-60
2022/11/26 05:09:22;;;;;;;;;;;;;;;7.17;100.00;99018.25;5068908;28;19924;-59
2022/11/26 05:11:48;;;;;;;;;;;;;;;7.17;100.00;99036.84;5069069;28;19988;-60
2022/11/26 05:14:14;;;;;;;;;;;;;;;7.11;100.00;99027.88;5068821;28;20056;-61
2022/11/26 05:16:41;;;;;;;;;;;;;;;7.05;100.00;99034.06;5068971;28;20023;-60
2022/11/26 05:19:07;;;;;;;;;;;;;;;7.09;100.00;99037.88;5068772;28;19967;-60
2022/11/26 05:21:35;;;;;;;;;;;;;;;7.09;100.00;99037.88;5069139;28;19929;-60
2022/11/26 05:24:01;;;;;;;;;;;;;;;7.05;100.00;99034.88;5068639;28;20008;-60
2022/11/26 05:26:27;;;;;;;;;;;;;;;7.03;100.00;99038.75;5069215;28;19980;-60
2022/11/26 05:28:54;;;;;;;;;;;;;;;7.01;100.00;99035.50;5051473;28;19928;-61
2022/11/26 05:31:20;;;;;;;;;;;;;;;7.04;100.00;99043.03;5068892;28;19920;-61
2022/11/26 05:33:46;;;;;;;;;;;;;;;7.05;100.00;99039.38;5069127;28;19970;-60
2022/11/26 05:36:13;;;;;;;;;;;;;;;7.09;100.00;99045.06;5068727;28;19984;-60
2022/11/26 05:38:40;;;;;;;;;;;;;;;7.10;100.00;99046.69;5069194;28;19948;-60
2022/11/26 05:41:07;;;;;;;;;;;;;;;7.01;100.00;99040.81;5072942;28;19925;-60
2022/11/26 05:43:34;;;;;;;;;;;;;;;7.01;100.00;99041.63;5072970;28;19971;-60
2022/11/26 05:46:03;;;;;;;;;;;;;;;7.04;100.00;99043.03;5072931;28;20028;-60
2022/11/26 05:48:29;;;;;;;;;;;;;;;7.06;100.00;99056.91;5064679;28;19988;-60
2022/11/26 05:50:56;;;;;;;;;;;;;;;6.98;100.00;99052.66;5073014;28;19984;-61
2022/11/26 05:53:22;;;;;;;;;;;;;;;6.96;100.00;99054.72;5072619;28;20031;-59
2022/11/26 05:55:50;;;;;;;;;;;;;;;6.94;100.00;99058.59;5072768;28;19932;-60
2022/11/26 05:58:16;;;;;;;;;;;;;;;6.89;100.00;99059.25;5072800;28;19952;-60
2022/11/26 06:00:43;;;;;;;;;;;;;;;6.93;100.00;99059.66;5072743;28;19935;-60
2022/11/26 06:03:09;;;;;;;;;;;;;;;6.89;100.00;99063.75;5072409;28;19952;-61
2022/11/26 06:05:35;;;;;;;;;;;;;;;6.97;100.00;99053.69;5072358;28;20008;-61
2022/11/26 06:08:02;;;;;;;;;;;;;;;6.98;100.00;99065.94;5072217;28;19963;-60
2022/11/26 06:10:28;;;;;;;;;;;;;;;6.94;100.00;99058.59;5063849;28;19975;-60
2022/11/26 06:12:56;;;;;;;;;;;;;;;6.94;100.00;99069.22;5072113;28;19929;-60
2022/11/26 06:15:22;;;;;;;;;;;;;;;7.01;100.00;99067.38;5071846;28;19980;-59
2022/11/26 06:17:48;;;;;;;;;;;;;;;6.99;100.00;99064.91;5072101;28;19992;-60
2022/11/26 06:20:14;;;;;;;;;;;;;;;6.92;100.00;99071.28;5071785;28;20000;-60
2022/11/26 06:22:42;;;;;;;;;;;;;;;7.04;100.00;99080.22;5071447;28;20019;-61
2022/11/26 06:25:09;;;;;;;;;;;;;;;7.00;100.00;99077.16;5071578;28;19998;-60
2022/11/26 06:27:36;;;;;;;;;;;;;;;7.01;100.00;99070.03;5071709;28;19931;-60
2022/11/26 06:30:04;;;;;;;;;;;;;;;6.98;100.00;99070.44;5071262;28;19984;-60
2022/11/26 06:32:31;;;;;;;;;;;;;;;7.01;100.00;99080.66;5063536;28;19979;-61
2022/11/26 06:34:57;;;;;;;;;;;;;;;7.16;100.00;99083.84;5071645;28;20004;-60
2022/11/26 06:37:24;;;;;;;;;;;;;;;7.13;100.00;99080.78;5072146;28;19925;-60
2022/11/26 06:39:51;;;;;;;;;;;;;;;7.13;100.00;99068.31;5072195;28;19955;-60
2022/11/26 06:42:17;;;;;;;;;;;;;;;7.15;100.00;99081.41;5071931;28;19935;-60
2022/11/26 06:44:45;;;;;;;;;;;;;;;7.16;100.00;99083.84;5072142;28;19960;-61
2022/11/26 06:47:13;;;;;;;;;;;;;;;7.06;100.00;99078.16;5071665;28;19921;-60
2022/11/26 06:49:39;;;;;;;;;;;;;;;7.06;100.00;99086.13;5071666;28;19924;-60
2022/11/26 06:52:06;;;;;;;;;;;;;;;7.12;100.00;99090.59;5071608;28;20001;-61
2022/11/26 06:54:32;;;;;;;;;;;;;;;7.13;100.00;99086.91;5071888;28;20003;-59
2022/11/26 06:56:59;;;;;;;;;;;;;;;7.11;100.00;99093.47;5071633;28;19929;-60
2022/11/26 06:59:25;;;;;;;;;;;;;;;7.15;100.00;99102.66;5071862;28;20004;-60
2022/11/26 07:01:51;;;;;;;;;;;;;;;7.17;100.00;99105.91;5071677;28;20444;-60
2022/11/26 07:04:19;;;;;;;;;;;;;;;7.20;100.00;99111.63;5071363;28;20020;-60
2022/11/26 07:06:45;;;;;;;;;;;;;;;7.21;100.00;99118.53;5071676;28;19997;-59
2022/11/26 07:09:12;;;;;;;;;;;;;;;7.21;100.00;99129.16;5071469;28;19943;-61
2022/11/26 07:11:39;;;;;;;;;;;;;;;7.14;100.00;99128.41;5071667;28;19967;-60
2022/11/26 07:14:06;;;;;;;;;;;;;;;7.19;100.00;99123.25;5071320;28;19967;-61
2022/11/26 07:16:33;;;;;;;;;;;;;;;7.21;100.00;99131.03;5071450;28;19989;-60
2022/11/26 07:18:59;;;;;;;;;;;;;;;7.21;100.00;99131.81;5071323;28;19929;-60
2022/11/26 07:21:27;;;;;;;;;;;;;;;7.22;100.00;99128.16;5071333;28;19936;-61
2022/11/26 07:23:54;;;;;;;;;;;;;;;7.21;100.00;99137.13;5070853;28;19993;-60
2022/11/26 07:26:22;;;;;;;;;;;;;;;7.23;100.00;99143.06;5071200;28;19925;-60
2022/11/26 07:28:48;;;;;;;;;;;;;;;7.21;100.00;99139.78;5071342;28;19928;-60
2022/11/26 07:31:16;;;;;;;;;;;;;;;7.21;100.00;99139.78;5071134;28;19943;-60
2022/11/26 07:33:42;;;;;;;;;;;;;;;7.20;100.00;99146.16;5071125;28;19931;-60
2022/11/26 07:36:11;;;;;;;;;;;;;;;7.22;100.00;99145.94;5070827;28;19985;-61
2022/11/26 07:38:38;;;;;;;;;;;;;;;7.23;100.00;99152.88;5071038;28;19992;-61
2022/11/26 07:41:06;;;;;;;;;;;;;;;7.18;100.00;99152.72;5070599;28;19968;-65
2022/11/26 07:43:33;;;;;;;;;;;;;;;7.31;100.00;99152.63;5070982;28;19945;-61
2022/11/26 07:46:00;;;;;;;;;;;;;;;7.29;100.00;99152.84;5070586;28;19992;-61
2022/11/26 07:48:27;;;;;;;;;;;;;;;7.36;100.00;99148.34;5070602;28;19976;-60
2022/11/26 07:50:53;;;;;;;;;;;;;;;7.37;100.00;99157.91;5070674;28;19983;-60
2022/11/26 07:53:19;;;;;;;;;;;;;;;7.27;100.00;99154.91;5070263;28;19988;-61
2022/11/26 07:55:47;;;;;;;;;;;;;;;7.40;100.00;99152.19;5070723;28;20497;-62
2022/11/26 07:58:13;;;;;;;;;;;;;;;7.42;100.00;99160.78;5070373;28;19924;-60
2022/11/26 08:00:40;;;;;;;;;;;;;;;7.30;100.00;99156.34;5070629;28;19992;-61
2022/11/26 08:03:06;;;;;;;;;;;;;;;7.16;100.00;99152.91;5068727;28;20032;-60
2022/11/26 08:05:33;;;;;;;;;;;;;;;7.33;100.00;99164.72;5070153;28;20028;-60
2022/11/26 08:07:59;;;;;;;;;;;;;;;7.45;100.00;99170.16;5070296;28;19997;-60
2022/11/26 08:10:25;;;;;;;;;;;;;;;7.44;100.00;99161.38;5070222;28;19959;-61
2022/11/26 08:12:53;;;;;;;;;;;;;;;7.35;100.00;99156.50;5070082;28;20003;-61
2022/11/26 08:15:19;;;;;;;;;;;;;;;7.11;100.00;99144.75;5069951;28;19929;-61
2022/11/26 08:17:46;;;;;;;;;;;;;;;7.12;100.00;99161.53;5070163;28;19988;-60
2022/11/26 08:20:12;;;;;;;;;;;;;;;7.20;100.00;99166.59;5069935;28;19987;-61
2022/11/26 08:22:38;;;;;;;;;;;;;;;7.06;100.00;99166.63;5069700;28;19940;-62
2022/11/26 08:25:05;;;;;;;;;;;;;;;7.14;100.00;99165.59;5070131;28;20000;-60
2022/11/26 08:27:32;;;;;;;;;;;;;;;7.14;100.00;99170.91;5070173;28;20230;-60
2022/11/26 08:29:59;;;;;;;;;;;;;;;7.30;100.00;99175.75;5070329;28;20001;-60
2022/11/26 08:32:26;;;;;;;;;;;;;;;7.37;100.00;99171.22;5070225;28;20388;-60
2022/11/26 08:34:52;;;;;;;;;;;;;;;7.15;100.00;99187.66;5070263;28;19925;-61
2022/11/26 08:37:19;;;;;;;;;;;;;;;7.39;100.00;99178.97;5069650;28;19939;-60
2022/11/26 08:39:45;;;;;;;;;;;;;;;7.45;100.00;99184.28;5069731;28;19928;-61
2022/11/26 08:42:11;;;;;;;;;;;;;;;7.49;100.00;99190.78;5069547;28;19928;-61
2022/11/26 08:44:38;;;;;;;;;;;;;;;7.49;100.00;99190.78;5069766;28;19995;-62
2022/11/26 08:47:05;;;;;;;;;;;;;;;7.24;100.00;99189.84;5069811;28;19996;-61
2022/11/26 08:49:32;;;;;;;;;;;;;;;7.37;100.00;99186.34;5069792;28;20035;-60
2022/11/26 08:51:58;;;;;;;;;;;;;;;7.52;100.00;99193.00;5069921;28;19980;-59
2022/11/26 08:54:24;;;;;;;;;;;;;;;7.43;100.00;99191.63;5069588;28;19925;-60
2022/11/26 08:56:51;;;;;;;;;;;;;;;7.57;100.00;99187.91;5069644;28;19988;-60
2022/11/26 08:59:21;;;;;;;;;;;;;;;7.34;100.00;99206.19;5069367;28;19960;-59
2022/11/26 09:01:48;;;;;;;;;;;;;;;7.45;100.00;99197.56;5051862;28;19963;-60
2022/11/26 09:04:16;;;;;;;;;;;;;;;7.44;100.00;99206.56;5069300;28;19960;-60
2022/11/26 09:06:42;;;;;;;;;;;;;;;7.60;100.00;99208.75;5069486;28;19980;-61
2022/11/26 09:09:12;;;;;;;;;;;;;;;7.60;100.00;99210.56;5069413;28;19974;-60
2022/11/26 09:11:39;;;;;;;;;;;;;;;7.53;100.00;99213.25;5069316;28;19967;-60
2022/11/26 09:14:06;;;;;;;;;;;;;;;7.59;100.00;99211.59;5069247;28;19992;-60
2022/11/26 09:16:32;;;;;;;;;;;;;;;7.62;100.00;99219.16;5069474;28;19961;-61
2022/11/26 09:18:59;;;;;;;;;;;;;;;7.73;100.00;99217.66;5069395;28;19929;-60
2022/11/26 09:21:28;;;;;;;;;;;;;;;7.64;100.00;99229.59;5069304;28;20261;-61
2022/11/26 09:23:54;;;;;;;;;;;;;;;7.76;100.00;99225.22;5069008;28;19924;-61
2022/11/26 09:26:21;;;;;;;;;;;;;;;7.37;100.00;99220.88;5068733;28;19932;-60
2022/11/26 09:28:48;;;;;;;;;;;;;;;7.67;100.00;99229.97;5068826;28;19925;-61
2022/11/26 09:31:14;;;;;;;;;;;;;;;7.64;100.00;99225.09;5068735;28;19931;-62
2022/11/26 09:33:41;;;;;;;;;;;;;;;7.59;100.00;99227.53;5068651;28;19960;-60
2022/11/26 09:36:08;;;;;;;;;;;;;;;7.53;100.00;99242.50;5068654;28;19925;-61
2022/11/26 09:38:37;;;;;;;;;;;;;;;7.58;100.00;99237.34;5068788;28;19936;-61
2022/11/26 09:41:09;;;;;;;;;;;;;;;7.67;100.00;99242.44;5068582;28;19924;-60
2022/11/26 09:43:40;;;;;;;;;;;;;;;7.51;100.00;99244.56;5061020;28;19924;-60
2022/11/26 09:46:06;;;;;;;;;;;;;;;7.69;100.00;99251.03;5068461;28;19964;-60
2022/11/26 09:48:33;;;;;;;;;;;;;;;7.68;100.00;99262.69;5068573;28;19970;-60
2022/11/26 09:51:03;;;;;;;;;;;;;;;7.80;100.00;99247.72;5068632;28;19936;-60
2022/11/26 09:53:31;;;;;;;;;;;;;;;7.76;100.00;99254.47;5060424;28;19931;-60
2022/11/26 09:56:00;;;;;;;;;;;;;;;7.76;100.00;99262.44;5068723;28;19925;-60
2022/11/26 09:58:31;;;;;;;;;;;;;;;7.69;100.00;99259.81;5068379;28;19983;-60
2022/11/26 10:00:58;;;;;;;;;;;;;;;7.81;100.00;99255.47;5068253;28;19988;-60
2022/11/26 10:03:30;;;;;;;;;;;;;;;7.86;100.00;99260.16;5068272;28;19932;-60
2022/11/26 10:05:58;;;;;;;;;;;;;;;7.71;100.00;99264.91;5068218;28;19939;-61
2022/11/26 10:08:31;;;;;;;;;;;;;;;7.68;100.00;99262.69;5068256;28;19929;-61
2022/11/26 10:11:04;;;;;;;;;;;;;;;7.59;100.00;99262.94;5068290;28;19924;-61
2022/11/26 10:13:39;;;;;;;;;;;;;;;7.56;100.00;99254.56;5060307;28;19925;-61
2022/11/26 10:16:10;;;;;;;;;;;;;;;7.73;100.00;99257.56;5068413;28;20136;-61
2022/11/26 10:18:40;;;;;;;;;;;;;;;7.85;100.00;99250.53;5068511;28;19925;-60
2022/11/26 10:21:14;;;;;;;;;;;;;;;7.88;100.00;99247.47;5068292;28;19984;-60
2022/11/26 10:23:44;;;;;;;;;;;;;;;7.98;100.00;99247.81;5067835;28;19956;-60
2022/11/26 10:26:15;;;;;;;;;;;;;;;7.72;100.00;99253.25;5070393;28;19920;-60
2022/11/26 10:28:44;;;;;;;;;;;;;;;7.88;100.00;99247.47;5071834;28;19988;-61
2022/11/26 10:31:15;;;;;;;;;;;;;;;7.94;100.00;99233.31;5071645;28;19943;-60
2022/11/26 10:33:45;;;;;;;;;;;;;;;7.98;100.00;99237.19;5072230;28;20009;-61
2022/11/26 10:36:20;;;;;;;;;;;;;;;8.04;100.00;99238.97;5071609;28;20019;-60
2022/11/26 10:38:46;;;;;;;;;;;;;;;7.74;100.00;99237.91;5071648;28;19952;-60
2022/11/26 10:41:15;;;;;;;;;;;;;;;7.79;100.00;99233.59;5071681;28;19924;-61
2022/11/26 10:43:41;;;;;;;;;;;;;;;8.00;100.00;99235.09;5071748;28;19992;-62
2022/11/26 10:46:07;;;;;;;;;;;;;;;8.10;100.00;99240.78;5071541;28;19924;-61
2022/11/26 10:48:35;;;;;;;;;;;;;;;8.13;100.00;99240.34;5071590;28;20014;-60
2022/11/26 10:51:03;;;;;;;;;;;;;;;7.97;100.00;99235.53;5071456;28;19964;-60
2022/11/26 10:53:31;;;;;;;;;;;;;;;8.14;100.00;99231.31;5063230;28;20217;-61
2022/11/26 10:55:58;;;;;;;;;;;;;;;7.85;100.00;99231.91;5071613;28;19955;-60
2022/11/26 10:58:26;;;;;;;;;;;;;;;7.91;100.00;99237.22;5071409;28;19987;-60
2022/11/26 11:01:01;;;;;;;;;;;;;;;8.19;100.00;99234.16;5071574;28;19984;-60
2022/11/26 11:03:28;;;;;;;;;;;;;;;7.86;100.00;99233.56;5071192;28;19983;-60
2022/11/26 11:06:10;;;;;;;;;;;;;;;8.01;100.00;99231.44;5070989;28;19999;-61
2022/11/26 11:08:36;;;;;;;;;;;;;;;8.33;100.00;99240.22;5063885;28;19995;-61
2022/11/26 11:11:03;;;;;;;;;;;;;;;7.78;100.00;99226.63;5071255;28;19980;-61
2022/11/26 11:13:41;;;;;;;;;;;;;;;8.05;100.00;99232.59;5062964;28;19925;-61
2022/11/26 11:16:07;;;;;;;;;;;;;;;7.98;100.00;99226.53;5071004;28;19924;-60
2022/11/26 11:18:35;;;;;;;;;;;;;;;7.92;100.00;99222.06;5070893;28;19932;-61
2022/11/26 11:21:02;;;;;;;;;;;;;;;8.02;100.00;99223.22;5070636;28;19929;-60
2022/11/26 11:23:30;;;;;;;;;;;;;;;8.23;100.00;99222.06;5070544;28;20300;-61
2022/11/26 11:25:58;;;;;;;;;;;;;;;8.12;100.00;99214.75;5070774;28;19996;-61
2022/11/26 11:28:25;;;;;;;;;;;;;;;7.78;100.00;99209.84;5070508;28;19928;-61
2022/11/26 11:30:59;;;;;;;;;;;;;;;8.06;100.00;99213.78;5070676;28;19995;-60
2022/11/26 11:33:26;;;;;;;;;;;;;;;8.42;100.00;99223.78;5070686;28;19982;-61
2022/11/26 11:36:00;;;;;;;;;;;;;;;8.58;100.00;99217.91;5070384;28;19988;-60
2022/11/26 11:38:28;;;;;;;;;;;;;;;8.45;100.00;99234.00;5069921;28;19992;-61
2022/11/26 11:40:54;;;;;;;;;;;;;;;7.99;100.00;99223.66;5070646;28;19967;-60
2022/11/26 11:43:22;;;;;;;;;;;;;;;7.89;100.00;99222.50;5070355;28;20019;-60
2022/11/26 11:45:54;;;;;;;;;;;;;;;8.33;100.00;99222.41;5070430;28;19960;-60
2022/11/26 11:48:27;;;;;;;;;;;;;;;8.29;100.00;99215.91;5070177;28;20021;-60
2022/11/26 11:50:57;;;;;;;;;;;;;;;8.01;100.00;99207.47;5070267;28;20039;-60
2022/11/26 11:53:32;;;;;;;;;;;;;;;7.89;100.00;99206.53;5069750;28;19992;-60
2022/11/26 11:56:07;;;;;;;;;;;;;;;7.87;100.00;99216.56;5069802;28;19981;-61
2022/11/26 11:58:44;;;;;;;;;;;;;;;8.18;100.00;99221.88;5062186;28;19984;-60
2022/11/26 12:01:17;;;;;;;;;;;;;;;8.14;100.00;99221.50;5069824;28;19963;-61
2022/11/26 12:03:55;;;;;;;;;;;;;;;8.17;100.00;99219.44;5069961;28;20023;-61
2022/11/26 12:06:28;;;;;;;;;;;;;;;8.00;100.00;99217.31;5069861;28;19988;-60
2022/11/26 12:09:01;;;;;;;;;;;;;;;8.22;100.00;99223.09;5069634;28;19935;-60
2022/11/26 12:11:33;;;;;;;;;;;;;;;8.21;100.00;99225.97;5069622;28;19984;-61
2022/11/26 12:14:02;;;;;;;;;;;;;;;8.41;100.00;99224.00;5069743;28;19957;-60
2022/11/26 12:16:32;;;;;;;;;;;;;;;8.58;100.00;99214.44;5061325;28;19925;-59
2022/11/26 12:19:01;;;;;;;;;;;;;;;8.61;100.00;99217.47;5069428;28;19979;-63
2022/11/26 12:21:31;;;;;;;;;;;;;;;8.47;100.00;99217.81;5069300;28;19956;-61
2022/11/26 12:23:59;;;;;;;;;;;;;;;8.59;100.00;99219.56;5069001;28;19924;-60
2022/11/26 12:26:28;;;;;;;;;;;;;;;8.78;100.00;99222.25;5069132;28;20335;-60
2022/11/26 12:28:57;;;;;;;;;;;;;;;8.65;100.00;99218.69;5069418;28;19993;-61
2022/11/26 12:31:28;;;;;;;;;;;;;;;8.79;100.00;99223.91;5069651;28;20024;-60
2022/11/26 12:33:57;;;;;;;;;;;;;;;8.41;100.00;99219.50;5069387;28;19992;-60
2022/11/26 12:36:28;;;;;;;;;;;;;;;8.73;100.00;99224.78;5069136;28;19984;-60
2022/11/26 12:38:56;;;;;;;;;;;;;;;8.80;100.00;99223.66;5069449;28;19991;-60
2022/11/26 12:41:25;;;;;;;;;;;;;;;8.57;100.00;99210.94;5069604;28;19980;-61
2022/11/26 12:43:57;;;;;;;;;;;;;;;8.53;100.00;99230.25;5069553;28;19985;-61
2022/11/26 12:46:26;;;;;;;;;;;;;;;8.47;100.00;99226.63;5069274;28;20027;-60
2022/11/26 12:48:56;;;;;;;;;;;;;;;8.51;100.00;99235.78;5069049;28;19940;-61
2022/11/26 12:51:33;;;;;;;;;;;;;;;8.47;100.00;99223.97;5069127;28;19960;-60